createdAt,value
2019-02-17T00:01:18.713Z,4.21
2019-02-17T00:03:50.586Z,4.22
2019-02-17T00:06:23.363Z,4.17
2019-02-17T00:08:55.227Z,4.08
2019-02-17T00:11:27.095Z,3.98
2019-02-17T00:13:59.943Z,3.96
2019-02-17T00:16:31.832Z,4.01
2019-02-17T00:19:03.687Z,4.00
2019-02-17T00:21:35.544Z,3.98
2019-02-17T00:24:07.422Z,3.93
2019-02-17T00:26:39.256Z,3.91
2019-02-17T00:29:11.115Z,3.86
2019-02-17T00:31:42.960Z,3.83
2019-02-17T00:34:14.831Z,3.83
2019-02-17T00:36:46.681Z,3.84
2019-02-17T00:39:18.717Z,3.79
2019-02-17T00:41:50.658Z,3.75
2019-02-17T00:44:22.529Z,3.74
2019-02-17T00:46:54.367Z,3.73
2019-02-17T00:49:28.314Z,3.70
2019-02-17T00:52:00.220Z,3.66
2019-02-17T00:54:32.098Z,3.67
2019-02-17T00:57:03.929Z,3.65
2019-02-17T00:59:35.763Z,3.68
2019-02-17T01:02:07.622Z,3.65
2019-02-17T01:04:39.507Z,3.63
2019-02-17T01:07:11.348Z,3.63
2019-02-17T01:09:43.211Z,3.61
2019-02-17T01:12:15.063Z,3.59
2019-02-17T01:14:46.894Z,3.54
2019-02-17T01:17:18.761Z,3.54
2019-02-17T01:19:50.654Z,3.55
2019-02-17T01:22:22.517Z,3.53
2019-02-17T01:24:54.337Z,3.50
2019-02-17T01:27:26.180Z,3.47
2019-02-17T01:29:58.012Z,3.42
2019-02-17T01:32:29.856Z,3.47
2019-02-17T01:35:01.681Z,3.42
2019-02-17T01:37:33.522Z,3.44
2019-02-17T01:40:06.551Z,3.43
2019-02-17T01:42:38.387Z,3.44
2019-02-17T01:45:11.883Z,3.42
2019-02-17T01:47:44.691Z,3.38
2019-02-17T01:50:16.525Z,3.34
2019-02-17T01:52:48.390Z,3.33
2019-02-17T01:55:20.242Z,3.33
2019-02-17T01:57:52.107Z,3.33
2019-02-17T02:00:23.977Z,3.28
2019-02-17T02:02:55.836Z,3.25
2019-02-17T02:05:27.791Z,3.25
2019-02-17T02:07:59.858Z,3.25
2019-02-17T02:10:33.316Z,3.27
2019-02-17T02:13:05.217Z,3.26
2019-02-17T02:15:38.335Z,3.24
2019-02-17T02:18:10.212Z,3.21
2019-02-17T02:20:42.268Z,3.18
2019-02-17T02:23:15.644Z,3.15
2019-02-17T02:25:47.514Z,3.15
2019-02-17T02:28:20.840Z,3.12
2019-02-17T02:30:52.701Z,3.14
2019-02-17T02:33:24.599Z,3.11
2019-02-17T02:35:56.467Z,3.10
2019-02-17T02:38:29.385Z,3.04
2019-02-17T02:41:01.959Z,3.04
2019-02-17T02:43:33.780Z,3.07
2019-02-17T02:46:05.646Z,3.07
2019-02-17T02:48:37.756Z,3.09
2019-02-17T02:51:09.611Z,3.09
2019-02-17T02:53:41.468Z,3.07
2019-02-17T02:56:13.335Z,3.06
2019-02-17T02:58:45.191Z,3.03
2019-02-17T03:01:17.095Z,3.02
2019-02-17T03:03:49.055Z,3.03
2019-02-17T03:06:28.095Z,3.01
2019-02-17T03:08:59.948Z,3.03
2019-02-17T03:11:31.795Z,3.03
2019-02-17T03:14:03.669Z,2.96
2019-02-17T03:16:35.514Z,2.91
2019-02-17T03:19:10.441Z,2.94
2019-02-17T03:21:42.308Z,2.94
2019-02-17T03:24:14.153Z,2.93
2019-02-17T03:26:46.005Z,2.92
2019-02-17T03:29:17.846Z,2.88
2019-02-17T03:31:49.728Z,2.88
2019-02-17T03:34:23.352Z,2.82
2019-02-17T03:36:55.198Z,2.78
2019-02-17T03:39:30.084Z,2.77
2019-02-17T03:42:02.167Z,2.75
2019-02-17T03:44:33.997Z,2.70
2019-02-17T03:47:05.860Z,2.66
2019-02-17T03:49:37.701Z,2.64
2019-02-17T03:52:09.567Z,2.65
2019-02-17T03:54:41.398Z,2.72
2019-02-17T03:57:13.284Z,2.67
2019-02-17T03:59:45.122Z,2.66
2019-02-17T04:02:16.961Z,2.62
2019-02-17T04:04:48.834Z,2.61
2019-02-17T04:07:20.704Z,2.65
2019-02-17T04:09:52.793Z,2.62
2019-02-17T04:12:24.758Z,2.58
2019-02-17T04:14:56.601Z,2.56
2019-02-17T04:17:28.648Z,2.55
2019-02-17T04:20:00.515Z,2.54
2019-02-17T04:22:32.369Z,2.51
2019-02-17T04:25:04.196Z,2.50
2019-02-17T04:27:36.071Z,2.52
2019-02-17T04:30:08.865Z,2.48
2019-02-17T04:32:40.696Z,2.45
2019-02-17T04:35:13.593Z,2.41
2019-02-17T04:37:45.507Z,2.44
2019-02-17T04:40:18.460Z,2.35
2019-02-17T04:42:50.314Z,2.31
2019-02-17T04:45:22.188Z,2.29
2019-02-17T04:47:57.142Z,2.27
2019-02-17T04:50:28.972Z,2.29
2019-02-17T04:53:00.792Z,2.26
2019-02-17T04:55:32.639Z,2.20
2019-02-17T04:58:04.480Z,2.23
2019-02-17T05:00:40.106Z,2.22
2019-02-17T05:03:09.840Z,2.22
2019-02-17T05:05:41.701Z,2.22
2019-02-17T05:08:13.527Z,2.28
2019-02-17T05:10:45.385Z,2.33
2019-02-17T05:13:17.218Z,2.29
2019-02-17T05:15:49.071Z,2.23
2019-02-17T05:18:20.892Z,2.23
2019-02-17T05:20:52.786Z,2.24
2019-02-17T05:23:24.580Z,2.28
2019-02-17T05:25:56.456Z,2.28
2019-02-17T05:28:28.273Z,2.27
2019-02-17T05:31:00.140Z,2.22
2019-02-17T05:33:31.959Z,2.23
2019-02-17T05:36:03.818Z,2.16
2019-02-17T05:38:35.652Z,2.09
2019-02-17T05:41:07.514Z,2.06
2019-02-17T05:43:42.432Z,2.07
2019-02-17T05:46:16.167Z,2.00
2019-02-17T05:48:48.000Z,1.99
2019-02-17T05:51:19.852Z,1.90
2019-02-17T05:53:53.422Z,1.87
2019-02-17T05:56:25.230Z,1.84
2019-02-17T05:58:57.051Z,1.90
2019-02-17T06:01:28.921Z,1.90
2019-02-17T06:04:00.755Z,1.90
2019-02-17T06:06:32.610Z,1.92
2019-02-17T06:09:05.356Z,1.97
2019-02-17T06:11:38.742Z,1.96
2019-02-17T06:14:10.591Z,1.98
2019-02-17T06:16:42.434Z,1.98
2019-02-17T06:19:14.297Z,1.95
2019-02-17T06:21:46.107Z,2.00
2019-02-17T06:24:17.948Z,2.02
2019-02-17T06:26:51.619Z,2.01
2019-02-17T06:29:27.439Z,2.02
2019-02-17T06:31:59.270Z,1.99
2019-02-17T06:34:31.096Z,1.96
2019-02-17T06:37:02.912Z,1.94
2019-02-17T06:39:34.773Z,1.97
2019-02-17T06:42:06.612Z,1.99
2019-02-17T06:44:38.515Z,2.00
2019-02-17T06:47:16.634Z,2.02
2019-02-17T06:49:48.478Z,2.06
2019-02-17T06:52:20.300Z,2.21
2019-02-17T06:55:19.184Z,2.30
2019-02-17T06:57:51.001Z,2.56
2019-02-17T07:00:27.292Z,2.78
2019-02-17T07:02:59.110Z,2.96
2019-02-17T07:05:56.667Z,3.17
2019-02-17T07:08:28.263Z,3.32
2019-02-17T07:11:00.114Z,3.54
2019-02-17T07:13:32.034Z,3.67
2019-02-17T07:16:03.895Z,3.85
2019-02-17T07:18:35.734Z,4.00
2019-02-17T07:21:07.591Z,4.16
2019-02-17T07:23:39.439Z,4.29
2019-02-17T07:26:11.316Z,4.43
2019-02-17T07:28:43.150Z,4.59
2019-02-17T07:31:16.329Z,4.69
2019-02-17T07:33:48.133Z,4.86
2019-02-17T07:36:21.942Z,5.02
2019-02-17T07:38:53.518Z,5.13
2019-02-17T07:41:25.100Z,5.22
2019-02-17T07:43:56.987Z,5.27
2019-02-17T07:46:28.929Z,5.30
2019-02-17T07:49:01.105Z,5.36
2019-02-17T07:51:32.929Z,5.47
2019-02-17T07:54:04.799Z,5.61
2019-02-17T07:56:36.617Z,5.74
2019-02-17T07:59:08.190Z,5.92
2019-02-17T08:01:45.194Z,5.85
2019-02-17T08:04:13.580Z,5.79
2019-02-17T08:06:45.124Z,5.87
2019-02-17T08:09:16.962Z,6.01
2019-02-17T08:11:48.795Z,6.22
2019-02-17T08:14:20.684Z,6.39
2019-02-17T08:16:52.569Z,6.57
2019-02-17T08:19:24.408Z,6.75
2019-02-17T08:21:55.964Z,6.83
2019-02-17T08:24:27.535Z,6.84
2019-02-17T08:26:59.409Z,6.95
2019-02-17T08:29:31.273Z,7.13
2019-02-17T08:32:02.905Z,7.26
2019-02-17T08:34:34.476Z,7.48
2019-02-17T08:37:06.023Z,7.53
2019-02-17T08:39:37.726Z,7.59
2019-02-17T08:42:09.305Z,7.72
2019-02-17T08:44:40.935Z,7.89
2019-02-17T08:47:12.525Z,8.07
2019-02-17T08:49:45.093Z,8.20
2019-02-17T08:52:16.694Z,8.34
2019-02-17T08:54:48.277Z,8.41
2019-02-17T08:57:19.870Z,8.48
2019-02-17T08:59:51.458Z,8.53
2019-02-17T09:02:23.035Z,8.65
2019-02-17T09:04:54.613Z,8.83
2019-02-17T09:07:26.229Z,8.89
2019-02-17T09:09:57.817Z,8.97
2019-02-17T09:12:29.455Z,9.16
2019-02-17T09:15:01.026Z,9.42
2019-02-17T09:17:34.718Z,9.56
2019-02-17T09:20:08.027Z,9.74
2019-02-17T09:22:42.498Z,9.96
2019-02-17T09:25:14.426Z,10.17
2019-02-17T09:27:46.019Z,10.33
2019-02-17T09:30:18.255Z,10.42
2019-02-17T09:32:49.877Z,10.47
2019-02-17T09:35:21.438Z,10.50
2019-02-17T09:37:53.163Z,10.59
2019-02-17T09:40:24.758Z,10.83
2019-02-17T09:42:57.710Z,11.08
2019-02-17T09:45:29.225Z,11.26
2019-02-17T09:48:02.621Z,11.37
2019-02-17T09:50:34.248Z,11.50
2019-02-17T09:53:08.893Z,11.43
2019-02-17T09:55:40.533Z,11.52
2019-02-17T09:58:12.644Z,11.59
2019-02-17T10:00:44.272Z,11.70
2019-02-17T10:03:15.834Z,11.77
2019-02-17T10:05:47.470Z,11.82
2019-02-17T10:08:20.105Z,11.96
2019-02-17T10:10:51.733Z,12.17
2019-02-17T10:13:23.323Z,12.37
2019-02-17T10:15:54.933Z,12.57
2019-02-17T10:18:26.504Z,12.71
2019-02-17T10:20:59.171Z,12.88
2019-02-17T10:23:30.748Z,13.01
2019-02-17T10:26:02.352Z,13.17
2019-02-17T10:28:42.099Z,13.31
2019-02-17T10:31:07.363Z,13.50
2019-02-17T10:33:40.582Z,13.65
2019-02-17T10:36:14.273Z,13.73
2019-02-17T10:38:45.901Z,13.88
2019-02-17T10:41:17.483Z,14.03
2019-02-17T10:43:49.187Z,14.14
2019-02-17T10:46:20.923Z,14.26
2019-02-17T10:48:52.501Z,14.43
2019-02-17T10:51:26.453Z,14.49
2019-02-17T10:53:57.575Z,14.57
2019-02-17T10:56:29.166Z,14.57
2019-02-17T10:59:00.812Z,14.64
2019-02-17T11:01:32.411Z,14.69
2019-02-17T11:04:09.925Z,14.74
2019-02-17T11:06:41.549Z,14.85
2019-02-17T11:09:19.251Z,14.92
2019-02-17T11:11:51.452Z,14.99
2019-02-17T11:14:23.063Z,15.07
2019-02-17T11:16:55.716Z,15.14
2019-02-17T11:19:27.355Z,15.16
2019-02-17T11:21:58.935Z,15.23
2019-02-17T11:24:30.545Z,15.25
2019-02-17T11:27:02.101Z,15.30
2019-02-17T11:29:33.740Z,15.28
2019-02-17T11:32:05.333Z,15.26
2019-02-17T11:34:36.914Z,15.24
2019-02-17T11:37:08.494Z,15.26
2019-02-17T11:39:40.117Z,15.34
2019-02-17T11:42:11.691Z,15.42
2019-02-17T11:44:43.350Z,15.42
2019-02-17T11:47:14.945Z,15.44
2019-02-17T11:49:46.581Z,15.43
2019-02-17T11:52:18.150Z,15.37
2019-02-17T11:54:49.774Z,15.41
2019-02-17T11:57:21.356Z,15.44
2019-02-17T11:59:53.089Z,15.45
2019-02-17T12:02:25.481Z,15.45
2019-02-17T12:04:57.207Z,15.48
2019-02-17T12:07:28.827Z,15.49
2019-02-17T12:10:01.494Z,15.49
2019-02-17T12:12:33.155Z,15.51
2019-02-17T12:15:06.375Z,15.57
2019-02-17T12:17:37.974Z,15.51
2019-02-17T12:20:34.918Z,15.48
2019-02-17T12:23:10.912Z,15.50
2019-02-17T12:25:53.464Z,15.43
2019-02-17T12:28:33.502Z,15.37
2019-02-17T12:31:05.116Z,15.43
2019-02-17T12:33:36.760Z,15.43
2019-02-17T12:36:08.393Z,15.45
2019-02-17T12:38:41.601Z,15.47
2019-02-17T12:41:13.194Z,15.46
2019-02-17T12:43:44.768Z,15.47
2019-02-17T12:46:16.375Z,15.53
2019-02-17T12:48:48.085Z,15.52
2019-02-17T12:51:19.789Z,15.56
2019-02-17T12:53:51.477Z,15.61
2019-02-17T12:56:24.131Z,15.66
2019-02-17T12:58:55.734Z,15.65
2019-02-17T13:01:27.338Z,15.63
2019-02-17T13:03:58.968Z,15.70
2019-02-17T13:06:30.595Z,15.79
2019-02-17T13:09:02.199Z,15.84
2019-02-17T13:11:34.924Z,15.89
2019-02-17T13:14:06.674Z,15.93
2019-02-17T13:16:38.251Z,16.00
2019-02-17T13:19:09.877Z,16.03
2019-02-17T13:21:41.439Z,16.05
2019-02-17T13:24:13.039Z,16.05
2019-02-17T13:26:44.612Z,16.05
2019-02-17T13:29:16.237Z,16.11
2019-02-17T13:31:48.018Z,16.13
2019-02-17T13:34:19.669Z,16.21
2019-02-17T13:36:51.374Z,16.27
2019-02-17T13:39:23.011Z,16.32
2019-02-17T13:41:54.617Z,16.38
2019-02-17T13:44:26.239Z,16.44
2019-02-17T13:46:57.817Z,16.48
2019-02-17T13:49:29.490Z,16.53
2019-02-17T13:52:01.076Z,16.58
2019-02-17T13:54:32.688Z,16.63
2019-02-17T13:57:04.253Z,16.66
2019-02-17T13:59:35.869Z,16.68
2019-02-17T14:02:07.517Z,16.69
2019-02-17T14:04:39.114Z,16.72
2019-02-17T14:07:10.768Z,16.74
2019-02-17T14:09:42.424Z,16.79
2019-02-17T14:12:15.075Z,16.82
2019-02-17T14:14:47.008Z,16.87
2019-02-17T14:17:18.825Z,16.93
2019-02-17T14:19:50.443Z,16.95
2019-02-17T14:22:22.049Z,16.96
2019-02-17T14:24:53.672Z,16.98
2019-02-17T14:27:25.391Z,16.98
2019-02-17T14:29:57.011Z,16.98
2019-02-17T14:32:28.720Z,16.98
2019-02-17T14:35:00.443Z,16.99
2019-02-17T14:37:32.050Z,16.99
2019-02-17T14:40:03.729Z,16.99
2019-02-17T14:42:36.852Z,16.99
2019-02-17T14:45:08.986Z,16.99
2019-02-17T14:47:40.586Z,16.97
2019-02-17T14:50:12.518Z,16.97
2019-02-17T14:52:44.163Z,16.96
2019-02-17T14:55:17.052Z,16.94
2019-02-17T14:57:48.682Z,16.91
2019-02-17T15:00:20.317Z,16.90
2019-02-17T15:02:52.171Z,16.89
2019-02-17T15:05:23.755Z,16.87
2019-02-17T15:07:55.473Z,16.85
2019-02-17T15:10:30.448Z,16.82
2019-02-17T15:13:02.167Z,16.82
2019-02-17T15:15:33.811Z,16.80
2019-02-17T15:18:07.975Z,16.79
2019-02-17T15:20:41.211Z,16.77
2019-02-17T15:23:12.789Z,16.74
2019-02-17T15:25:49.693Z,16.71
2019-02-17T15:28:21.467Z,16.68
2019-02-17T15:30:53.566Z,16.64
2019-02-17T15:33:25.243Z,16.60
2019-02-17T15:35:58.646Z,16.57
2019-02-17T15:38:30.277Z,16.55
2019-02-17T15:41:08.269Z,16.53
2019-02-17T15:43:43.907Z,16.51
2019-02-17T15:46:18.237Z,16.47
2019-02-17T15:48:59.889Z,16.45
2019-02-17T15:51:31.470Z,16.42
2019-02-17T15:54:06.009Z,16.39
2019-02-17T15:56:41.724Z,16.33
2019-02-17T15:59:18.381Z,16.30
2019-02-17T16:01:51.294Z,16.24
2019-02-17T16:04:28.539Z,16.20
2019-02-17T16:06:56.338Z,16.15
2019-02-17T16:09:30.286Z,16.11
2019-02-17T16:12:01.868Z,16.09
2019-02-17T16:14:33.592Z,16.05
2019-02-17T16:17:09.666Z,16.01
2019-02-17T16:19:41.683Z,15.93
2019-02-17T16:22:15.580Z,15.86
2019-02-17T16:24:47.202Z,15.80
2019-02-17T16:27:18.833Z,15.73
2019-02-17T16:29:50.607Z,15.66
2019-02-17T16:32:22.165Z,15.65
2019-02-17T16:34:53.752Z,15.60
2019-02-17T16:37:25.716Z,15.56
2019-02-17T16:40:01.141Z,15.50
2019-02-17T16:42:38.079Z,15.43
2019-02-17T16:45:16.623Z,15.32
2019-02-17T16:47:48.307Z,15.21
2019-02-17T16:50:27.889Z,15.12
2019-02-17T16:52:59.481Z,15.00
2019-02-17T16:55:38.366Z,14.86
2019-02-17T16:58:10.069Z,14.74
2019-02-17T17:00:46.388Z,14.59
2019-02-17T17:03:18.016Z,14.38
2019-02-17T17:05:49.695Z,14.20
2019-02-17T17:08:21.361Z,14.02
2019-02-17T17:10:52.965Z,13.90
2019-02-17T17:13:28.094Z,13.74
2019-02-17T17:16:04.120Z,13.54
2019-02-17T17:18:37.196Z,13.39
2019-02-17T17:21:10.109Z,13.25
2019-02-17T17:23:41.713Z,13.12
2019-02-17T17:26:14.654Z,13.00
2019-02-17T17:28:47.792Z,12.89
2019-02-17T17:31:27.065Z,12.75
2019-02-17T17:34:01.058Z,12.66
2019-02-17T17:36:34.591Z,12.52
2019-02-17T17:39:07.487Z,12.40
2019-02-17T17:41:46.154Z,12.30
2019-02-17T17:44:17.725Z,12.19
2019-02-17T17:46:49.384Z,12.09
2019-02-17T17:49:21.002Z,11.99
2019-02-17T17:51:54.150Z,11.90
2019-02-17T17:54:30.831Z,11.81
2019-02-17T17:57:07.024Z,11.71
2019-02-17T17:59:38.712Z,11.61
2019-02-17T18:02:15.420Z,11.55
2019-02-17T18:04:50.027Z,11.48
2019-02-17T18:07:25.183Z,11.40
2019-02-17T18:10:03.993Z,11.31
2019-02-17T18:12:38.883Z,11.25
2019-02-17T18:15:13.825Z,11.13
2019-02-17T18:17:53.819Z,11.06
2019-02-17T18:20:23.126Z,10.96
2019-02-17T18:22:57.954Z,10.88
2019-02-17T18:25:29.566Z,10.77
2019-02-17T18:28:01.339Z,10.68
2019-02-17T18:30:33.040Z,10.58
2019-02-17T18:33:07.501Z,10.52
2019-02-17T18:35:39.173Z,10.47
2019-02-17T18:38:13.953Z,10.41
2019-02-17T18:40:47.848Z,10.33
2019-02-17T18:43:21.775Z,10.23
2019-02-17T18:45:53.425Z,10.10
2019-02-17T18:48:25.039Z,10.04
2019-02-17T18:50:59.439Z,10.00
2019-02-17T18:53:34.104Z,9.90
2019-02-17T18:56:05.801Z,9.83
2019-02-17T18:58:40.471Z,9.79
2019-02-17T19:01:12.296Z,9.70
2019-02-17T19:03:44.140Z,9.61
2019-02-17T19:06:18.619Z,9.47
2019-02-17T19:08:50.548Z,9.44
2019-02-17T19:11:23.832Z,9.37
2019-02-17T19:13:57.021Z,9.29
2019-02-17T19:16:33.190Z,9.23
2019-02-17T19:19:04.815Z,9.17
2019-02-17T19:21:36.533Z,9.11
2019-02-17T19:24:10.287Z,9.02
2019-02-17T19:26:41.836Z,9.00
2019-02-17T19:29:25.486Z,8.90
2019-02-17T19:31:57.073Z,8.83
2019-02-17T19:34:28.742Z,8.82
2019-02-17T19:37:02.147Z,8.77
2019-02-17T19:39:33.766Z,8.72
2019-02-17T19:42:06.091Z,8.72
2019-02-17T19:44:41.770Z,8.68
2019-02-17T19:47:13.340Z,8.58
2019-02-17T19:49:44.961Z,8.54
2019-02-17T19:52:16.601Z,8.50
2019-02-17T19:54:50.541Z,8.27
2019-02-17T19:57:22.275Z,8.11
2019-02-17T19:59:59.854Z,8.08
2019-02-17T20:02:50.616Z,8.01
2019-02-17T20:05:25.287Z,7.92
2019-02-17T20:07:57.965Z,7.82
2019-02-17T20:10:34.499Z,7.74
2019-02-17T20:13:08.415Z,7.71
2019-02-17T20:15:40.245Z,7.60
2019-02-17T20:18:14.280Z,7.55
2019-02-17T20:20:46.989Z,7.54
2019-02-17T20:23:20.354Z,7.45
2019-02-17T20:25:59.308Z,7.38
2019-02-17T20:28:40.840Z,7.38
2019-02-17T20:31:06.657Z,7.32
2019-02-17T20:33:42.329Z,7.31
2019-02-17T20:36:18.389Z,7.26
2019-02-17T20:38:50.006Z,7.20
2019-02-17T20:41:22.756Z,7.20
2019-02-17T20:43:54.537Z,7.16
2019-02-17T20:46:26.111Z,7.11
2019-02-17T20:49:05.104Z,7.05
2019-02-17T20:51:36.714Z,7.04
2019-02-17T20:54:12.499Z,6.99
2019-02-17T20:56:44.107Z,6.95
2019-02-17T20:59:16.804Z,6.87
2019-02-17T21:01:49.748Z,6.84
2019-02-17T21:04:24.505Z,6.82
2019-02-17T21:06:56.122Z,6.82
2019-02-17T21:09:28.860Z,6.82
2019-02-17T21:12:00.455Z,6.76
2019-02-17T21:14:32.099Z,6.73
2019-02-17T21:17:03.788Z,6.66
2019-02-17T21:19:35.362Z,6.60
2019-02-17T21:22:07.092Z,6.58
2019-02-17T21:24:38.674Z,6.57
2019-02-17T21:27:10.290Z,6.51
2019-02-17T21:29:41.994Z,6.46
2019-02-17T21:32:16.536Z,6.47
2019-02-17T21:34:47.144Z,6.42
2019-02-17T21:37:18.754Z,6.48
2019-02-17T21:39:53.512Z,6.41
2019-02-17T21:42:25.153Z,6.40
2019-02-17T21:44:59.245Z,6.35
2019-02-17T21:47:32.887Z,6.30
2019-02-17T21:50:07.149Z,6.28
2019-02-17T21:52:42.213Z,6.26
2019-02-17T21:55:15.515Z,6.23
2019-02-17T21:57:48.732Z,6.18
2019-02-17T22:00:22.553Z,6.12
2019-02-17T22:02:54.157Z,6.10
2019-02-17T22:05:27.449Z,6.05
2019-02-17T22:07:58.986Z,5.98
2019-02-17T22:10:32.995Z,5.95
2019-02-17T22:13:06.218Z,5.90
2019-02-17T22:15:44.227Z,5.86
2019-02-17T22:18:17.443Z,5.82
2019-02-17T22:20:51.789Z,5.76
2019-02-17T22:23:23.546Z,5.74
2019-02-17T22:25:58.074Z,5.68
2019-02-17T22:28:29.658Z,5.65
2019-02-17T22:31:02.631Z,5.60
2019-02-17T22:33:37.133Z,5.55
2019-02-17T22:36:09.094Z,5.54
2019-02-17T22:38:43.056Z,5.49
2019-02-17T22:41:14.618Z,5.51
2019-02-17T22:43:46.233Z,5.41
2019-02-17T22:46:17.795Z,5.38
2019-02-17T22:48:52.809Z,5.33
2019-02-17T22:51:26.114Z,5.27
2019-02-17T22:53:58.054Z,5.23
2019-02-17T22:56:29.935Z,5.25
2019-02-17T22:59:04.424Z,5.16
2019-02-17T23:01:40.308Z,5.12
2019-02-17T23:04:15.186Z,5.12
2019-02-17T23:06:53.744Z,5.06
2019-02-17T23:09:23.584Z,5.02
2019-02-17T23:12:03.545Z,5.02
2019-02-17T23:14:38.809Z,5.00
2019-02-17T23:17:15.620Z,4.96
2019-02-17T23:19:49.993Z,4.93
2019-02-17T23:22:24.806Z,4.87
2019-02-17T23:24:56.942Z,4.91
2019-02-17T23:27:28.612Z,4.86
2019-02-17T23:30:00.468Z,4.87
2019-02-17T23:32:33.654Z,4.83
2019-02-17T23:35:05.532Z,4.79
2019-02-17T23:37:37.119Z,4.74
2019-02-17T23:40:10.415Z,4.75
2019-02-17T23:42:43.382Z,4.69
2019-02-17T23:45:15.279Z,4.69
2019-02-17T23:47:47.123Z,4.65
2019-02-17T23:50:18.988Z,4.59
2019-02-17T23:52:54.406Z,4.52
2019-02-17T23:55:28.425Z,4.51
2019-02-17T23:58:04.168Z,4.52
